sensor_id;sensor_type;location;lat;lon;timestamp;P1;durP1;ratioP1;P2;durP2;ratioP2
54909;SDS011;63189;51.240;9.964;2023-11-21T00:00:13;4.38;;;2.00;;
54909;SDS011;63189;51.240;9.964;2023-11-21T00:02:39;3.92;;;2.03;;
54909;SDS011;63189;51.240;9.964;2023-11-21T00:05:08;4.25;;;2.03;;
54909;SDS011;63189;51.240;9.964;2023-11-21T00:07:39;5.95;;;2.25;;
54909;SDS011;63189;51.240;9.964;2023-11-21T00:10:06;4.45;;;2.22;;
54909;SDS011;63189;51.240;9.964;2023-11-21T00:12:33;2.85;;;1.52;;
54909;SDS011;63189;51.240;9.964;2023-11-21T00:14:59;3.97;;;2.47;;
54909;SDS011;63189;51.240;9.964;2023-11-21T00:17:24;4.47;;;2.58;;
54909;SDS011;63189;51.240;9.964;2023-11-21T00:19:50;7.22;;;3.90;;
54909;SDS011;63189;51.240;9.964;2023-11-21T00:22:17;4.70;;;2.90;;
54909;SDS011;63189;51.240;9.964;2023-11-21T00:24:43;4.88;;;3.45;;
54909;SDS011;63189;51.240;9.964;2023-11-21T00:27:09;4.93;;;3.38;;
54909;SDS011;63189;51.240;9.964;2023-11-21T00:29:35;5.20;;;3.83;;
54909;SDS011;63189;51.240;9.964;2023-11-21T00:32:00;6.45;;;4.28;;
54909;SDS011;63189;51.240;9.964;2023-11-21T00:34:25;9.75;;;5.68;;
54909;SDS011;63189;51.240;9.964;2023-11-21T00:36:51;8.75;;;5.93;;
54909;SDS011;63189;51.240;9.964;2023-11-21T00:39:16;7.35;;;4.40;;
54909;SDS011;63189;51.240;9.964;2023-11-21T00:41:41;6.10;;;3.90;;
54909;SDS011;63189;51.240;9.964;2023-11-21T00:44:07;7.22;;;4.13;;
54909;SDS011;63189;51.240;9.964;2023-11-21T00:46:32;7.03;;;4.25;;
54909;SDS011;63189;51.240;9.964;2023-11-21T00:48:58;6.43;;;4.07;;
54909;SDS011;63189;51.240;9.964;2023-11-21T00:51:23;8.18;;;4.60;;
54909;SDS011;63189;51.240;9.964;2023-11-21T00:53:49;6.43;;;3.80;;
54909;SDS011;63189;51.240;9.964;2023-11-21T00:56:15;5.85;;;3.17;;
54909;SDS011;63189;51.240;9.964;2023-11-21T00:58:40;5.95;;;3.28;;
54909;SDS011;63189;51.240;9.964;2023-11-21T01:01:14;4.47;;;2.85;;
54909;SDS011;63189;51.240;9.964;2023-11-21T01:03:40;8.18;;;3.53;;
54909;SDS011;63189;51.240;9.964;2023-11-21T01:06:05;3.97;;;2.60;;
54909;SDS011;63189;51.240;9.964;2023-11-21T01:08:33;4.80;;;2.58;;
54909;SDS011;63189;51.240;9.964;2023-11-21T01:10:58;4.95;;;2.85;;
54909;SDS011;63189;51.240;9.964;2023-11-21T01:13:23;7.72;;;2.95;;
54909;SDS011;63189;51.240;9.964;2023-11-21T01:15:49;4.95;;;2.88;;
54909;SDS011;63189;51.240;9.964;2023-11-21T01:18:14;4.25;;;2.72;;
54909;SDS011;63189;51.240;9.964;2023-11-21T01:20:39;4.85;;;2.97;;
54909;SDS011;63189;51.240;9.964;2023-11-21T01:23:05;5.50;;;2.70;;
54909;SDS011;63189;51.240;9.964;2023-11-21T01:25:30;5.53;;;2.83;;
54909;SDS011;63189;51.240;9.964;2023-11-21T01:27:55;5.13;;;2.83;;
54909;SDS011;63189;51.240;9.964;2023-11-21T01:30:21;4.20;;;2.45;;
54909;SDS011;63189;51.240;9.964;2023-11-21T01:32:46;5.32;;;3.42;;
54909;SDS011;63189;51.240;9.964;2023-11-21T01:35:12;4.53;;;2.83;;
54909;SDS011;63189;51.240;9.964;2023-11-21T01:37:38;3.80;;;2.55;;
54909;SDS011;63189;51.240;9.964;2023-11-21T01:40:04;4.93;;;2.33;;
54909;SDS011;63189;51.240;9.964;2023-11-21T01:42:34;7.88;;;3.15;;
54909;SDS011;63189;51.240;9.964;2023-11-21T01:44:59;6.90;;;2.83;;
54909;SDS011;63189;51.240;9.964;2023-11-21T01:47:25;7.32;;;2.75;;
54909;SDS011;63189;51.240;9.964;2023-11-21T01:49:50;4.75;;;2.08;;
54909;SDS011;63189;51.240;9.964;2023-11-21T01:52:16;5.05;;;2.22;;
54909;SDS011;63189;51.240;9.964;2023-11-21T01:54:42;4.10;;;2.33;;
54909;SDS011;63189;51.240;9.964;2023-11-21T01:57:08;6.47;;;2.75;;
54909;SDS011;63189;51.240;9.964;2023-11-21T01:59:34;6.47;;;3.00;;
54909;SDS011;63189;51.240;9.964;2023-11-21T02:02:04;4.25;;;2.17;;
54909;SDS011;63189;51.240;9.964;2023-11-21T02:04:34;5.13;;;2.40;;
54909;SDS011;63189;51.240;9.964;2023-11-21T02:07:01;6.97;;;2.65;;
54909;SDS011;63189;51.240;9.964;2023-11-21T02:09:30;4.47;;;2.60;;
54909;SDS011;63189;51.240;9.964;2023-11-21T02:11:58;5.28;;;2.80;;
54909;SDS011;63189;51.240;9.964;2023-11-21T02:14:24;3.53;;;2.22;;
54909;SDS011;63189;51.240;9.964;2023-11-21T02:16:53;5.75;;;2.15;;
54909;SDS011;63189;51.240;9.964;2023-11-21T02:19:19;4.43;;;2.30;;
54909;SDS011;63189;51.240;9.964;2023-11-21T02:21:54;14.55;;;3.20;;
54909;SDS011;63189;51.240;9.964;2023-11-21T02:24:23;7.00;;;3.25;;
54909;SDS011;63189;51.240;9.964;2023-11-21T02:26:48;7.38;;;3.45;;
54909;SDS011;63189;51.240;9.964;2023-11-21T02:29:18;9.70;;;2.78;;
54909;SDS011;63189;51.240;9.964;2023-11-21T02:31:46;4.00;;;2.38;;
54909;SDS011;63189;51.240;9.964;2023-11-21T02:34:16;5.57;;;2.55;;
54909;SDS011;63189;51.240;9.964;2023-11-21T02:36:42;6.32;;;3.03;;
54909;SDS011;63189;51.240;9.964;2023-11-21T02:39:12;13.57;;;3.95;;
54909;SDS011;63189;51.240;9.964;2023-11-21T02:41:38;4.53;;;3.30;;
54909;SDS011;63189;51.240;9.964;2023-11-21T02:44:04;6.13;;;3.13;;
54909;SDS011;63189;51.240;9.964;2023-11-21T02:46:33;5.65;;;3.72;;
54909;SDS011;63189;51.240;9.964;2023-11-21T02:49:00;3.72;;;2.40;;
54909;SDS011;63189;51.240;9.964;2023-11-21T02:51:26;3.72;;;2.47;;
54909;SDS011;63189;51.240;9.964;2023-11-21T02:53:51;4.75;;;2.10;;
54909;SDS011;63189;51.240;9.964;2023-11-21T02:56:17;4.00;;;2.53;;
54909;SDS011;63189;51.240;9.964;2023-11-21T02:58:43;4.15;;;2.40;;
54909;SDS011;63189;51.240;9.964;2023-11-21T03:01:09;4.20;;;2.40;;
54909;SDS011;63189;51.240;9.964;2023-11-21T03:03:35;6.47;;;2.80;;
54909;SDS011;63189;51.240;9.964;2023-11-21T03:06:05;6.55;;;2.53;;
54909;SDS011;63189;51.240;9.964;2023-11-21T03:08:31;4.03;;;2.53;;
54909;SDS011;63189;51.240;9.964;2023-11-21T03:10:57;6.88;;;2.80;;
54909;SDS011;63189;51.240;9.964;2023-11-21T03:13:22;5.55;;;3.40;;
54909;SDS011;63189;51.240;9.964;2023-11-21T03:15:48;4.10;;;2.20;;
54909;SDS011;63189;51.240;9.964;2023-11-21T03:18:13;3.03;;;2.15;;
54909;SDS011;63189;51.240;9.964;2023-11-21T03:20:38;2.03;;;1.52;;
54909;SDS011;63189;51.240;9.964;2023-11-21T03:23:04;3.75;;;1.85;;
54909;SDS011;63189;51.240;9.964;2023-11-21T03:25:30;3.45;;;2.00;;
54909;SDS011;63189;51.240;9.964;2023-11-21T03:27:56;2.55;;;1.52;;
54909;SDS011;63189;51.240;9.964;2023-11-21T03:30:21;3.90;;;1.88;;
54909;SDS011;63189;51.240;9.964;2023-11-21T03:32:47;2.08;;;1.58;;
54909;SDS011;63189;51.240;9.964;2023-11-21T03:35:12;2.78;;;2.15;;
54909;SDS011;63189;51.240;9.964;2023-11-21T03:37:39;6.07;;;2.20;;
54909;SDS011;63189;51.240;9.964;2023-11-21T03:40:06;5.30;;;2.28;;
54909;SDS011;63189;51.240;9.964;2023-11-21T03:42:33;3.03;;;1.98;;
54909;SDS011;63189;51.240;9.964;2023-11-21T03:44:59;7.82;;;2.90;;
54909;SDS011;63189;51.240;9.964;2023-11-21T03:47:25;3.40;;;2.38;;
54909;SDS011;63189;51.240;9.964;2023-11-21T03:49:51;4.63;;;2.85;;
54909;SDS011;63189;51.240;9.964;2023-11-21T03:52:16;3.92;;;2.63;;
54909;SDS011;63189;51.240;9.964;2023-11-21T03:54:42;3.92;;;2.70;;
54909;SDS011;63189;51.240;9.964;2023-11-21T03:57:08;3.88;;;2.50;;
54909;SDS011;63189;51.240;9.964;2023-11-21T03:59:39;6.15;;;2.92;;
54909;SDS011;63189;51.240;9.964;2023-11-21T04:02:05;4.70;;;2.42;;
54909;SDS011;63189;51.240;9.964;2023-11-21T04:04:30;4.50;;;2.75;;
54909;SDS011;63189;51.240;9.964;2023-11-21T04:06:56;5.00;;;2.55;;
54909;SDS011;63189;51.240;9.964;2023-11-21T04:09:21;5.20;;;2.53;;
54909;SDS011;63189;51.240;9.964;2023-11-21T04:11:50;5.05;;;2.45;;
54909;SDS011;63189;51.240;9.964;2023-11-21T04:14:15;5.68;;;2.83;;
54909;SDS011;63189;51.240;9.964;2023-11-21T04:16:41;4.60;;;2.38;;
54909;SDS011;63189;51.240;9.964;2023-11-21T04:19:07;5.68;;;2.80;;
54909;SDS011;63189;51.240;9.964;2023-11-21T04:21:34;5.90;;;3.15;;
54909;SDS011;63189;51.240;9.964;2023-11-21T04:23:59;6.78;;;3.10;;
54909;SDS011;63189;51.240;9.964;2023-11-21T04:26:25;5.53;;;2.55;;
54909;SDS011;63189;51.240;9.964;2023-11-21T04:28:50;6.82;;;3.08;;
54909;SDS011;63189;51.240;9.964;2023-11-21T04:31:18;4.85;;;2.92;;
54909;SDS011;63189;51.240;9.964;2023-11-21T04:33:43;5.43;;;3.42;;
54909;SDS011;63189;51.240;9.964;2023-11-21T04:36:10;5.65;;;2.95;;
54909;SDS011;63189;51.240;9.964;2023-11-21T04:38:35;6.38;;;2.75;;
54909;SDS011;63189;51.240;9.964;2023-11-21T04:41:00;8.82;;;2.65;;
54909;SDS011;63189;51.240;9.964;2023-11-21T04:43:26;5.13;;;2.53;;
54909;SDS011;63189;51.240;9.964;2023-11-21T04:45:54;6.10;;;3.00;;
54909;SDS011;63189;51.240;9.964;2023-11-21T04:48:20;7.65;;;3.08;;
54909;SDS011;63189;51.240;9.964;2023-11-21T04:50:45;3.95;;;2.75;;
54909;SDS011;63189;51.240;9.964;2023-11-21T04:53:11;3.53;;;2.60;;
54909;SDS011;63189;51.240;9.964;2023-11-21T04:55:39;6.88;;;2.80;;
54909;SDS011;63189;51.240;9.964;2023-11-21T04:58:04;6.65;;;3.38;;
54909;SDS011;63189;51.240;9.964;2023-11-21T05:00:29;7.68;;;4.10;;
54909;SDS011;63189;51.240;9.964;2023-11-21T05:02:55;8.20;;;4.07;;
54909;SDS011;63189;51.240;9.964;2023-11-21T05:05:20;5.82;;;3.40;;
54909;SDS011;63189;51.240;9.964;2023-11-21T05:07:45;8.02;;;3.70;;
54909;SDS011;63189;51.240;9.964;2023-11-21T05:10:11;5.88;;;2.78;;
54909;SDS011;63189;51.240;9.964;2023-11-21T05:12:40;5.45;;;3.20;;
54909;SDS011;63189;51.240;9.964;2023-11-21T05:15:07;4.88;;;3.03;;
54909;SDS011;63189;51.240;9.964;2023-11-21T05:17:34;5.40;;;3.03;;
54909;SDS011;63189;51.240;9.964;2023-11-21T05:20:00;8.77;;;4.50;;
54909;SDS011;63189;51.240;9.964;2023-11-21T05:22:28;6.95;;;4.28;;
54909;SDS011;63189;51.240;9.964;2023-11-21T05:24:54;10.80;;;4.32;;
54909;SDS011;63189;51.240;9.964;2023-11-21T05:27:19;7.90;;;4.32;;
54909;SDS011;63189;51.240;9.964;2023-11-21T05:29:44;20.58;;;4.53;;
54909;SDS011;63189;51.240;9.964;2023-11-21T05:32:10;7.78;;;4.85;;
54909;SDS011;63189;51.240;9.964;2023-11-21T05:34:35;7.45;;;3.78;;
54909;SDS011;63189;51.240;9.964;2023-11-21T05:37:00;6.65;;;3.95;;
54909;SDS011;63189;51.240;9.964;2023-11-21T05:39:26;53.63;;;5.85;;
54909;SDS011;63189;51.240;9.964;2023-11-21T05:41:53;8.40;;;3.95;;
54909;SDS011;63189;51.240;9.964;2023-11-21T05:44:19;18.92;;;3.83;;
54909;SDS011;63189;51.240;9.964;2023-11-21T05:46:44;34.17;;;4.75;;
54909;SDS011;63189;51.240;9.964;2023-11-21T05:49:10;11.65;;;3.50;;
54909;SDS011;63189;51.240;9.964;2023-11-21T05:51:36;72.55;;;5.25;;
54909;SDS011;63189;51.240;9.964;2023-11-21T05:54:02;24.52;;;3.13;;
54909;SDS011;63189;51.240;9.964;2023-11-21T05:56:28;18.13;;;2.67;;
54909;SDS011;63189;51.240;9.964;2023-11-21T05:58:53;21.02;;;2.72;;
54909;SDS011;63189;51.240;9.964;2023-11-21T06:01:18;12.73;;;2.13;;
54909;SDS011;63189;51.240;9.964;2023-11-21T06:03:44;5.53;;;2.10;;
54909;SDS011;63189;51.240;9.964;2023-11-21T06:06:10;7.80;;;2.97;;
54909;SDS011;63189;51.240;9.964;2023-11-21T06:08:36;9.32;;;3.90;;
54909;SDS011;63189;51.240;9.964;2023-11-21T06:11:01;17.60;;;5.60;;
54909;SDS011;63189;51.240;9.964;2023-11-21T06:13:26;12.00;;;4.72;;
54909;SDS011;63189;51.240;9.964;2023-11-21T06:15:52;11.85;;;4.13;;
54909;SDS011;63189;51.240;9.964;2023-11-21T06:18:18;14.20;;;2.83;;
54909;SDS011;63189;51.240;9.964;2023-11-21T06:20:46;9.85;;;2.80;;
54909;SDS011;63189;51.240;9.964;2023-11-21T06:23:11;5.70;;;3.55;;
54909;SDS011;63189;51.240;9.964;2023-11-21T06:25:37;3.90;;;2.22;;
54909;SDS011;63189;51.240;9.964;2023-11-21T06:28:02;11.35;;;3.25;;
54909;SDS011;63189;51.240;9.964;2023-11-21T06:30:28;6.85;;;3.13;;
54909;SDS011;63189;51.240;9.964;2023-11-21T06:32:54;5.65;;;2.70;;
54909;SDS011;63189;51.240;9.964;2023-11-21T06:35:20;4.50;;;2.65;;
54909;SDS011;63189;51.240;9.964;2023-11-21T06:37:45;4.97;;;2.42;;
54909;SDS011;63189;51.240;9.964;2023-11-21T06:40:12;3.22;;;2.08;;
54909;SDS011;63189;51.240;9.964;2023-11-21T06:42:40;3.55;;;1.85;;
54909;SDS011;63189;51.240;9.964;2023-11-21T06:45:06;2.97;;;2.08;;
54909;SDS011;63189;51.240;9.964;2023-11-21T06:47:32;4.13;;;2.15;;
54909;SDS011;63189;51.240;9.964;2023-11-21T06:49:58;3.50;;;1.95;;
54909;SDS011;63189;51.240;9.964;2023-11-21T06:52:24;2.65;;;1.90;;
54909;SDS011;63189;51.240;9.964;2023-11-21T06:54:49;2.95;;;1.77;;
54909;SDS011;63189;51.240;9.964;2023-11-21T06:57:15;5.70;;;2.22;;
54909;SDS011;63189;51.240;9.964;2023-11-21T06:59:43;3.85;;;1.92;;
54909;SDS011;63189;51.240;9.964;2023-11-21T07:02:08;2.53;;;1.70;;
54909;SDS011;63189;51.240;9.964;2023-11-21T07:04:36;6.57;;;2.47;;
54909;SDS011;63189;51.240;9.964;2023-11-21T07:07:02;3.85;;;2.25;;
54909;SDS011;63189;51.240;9.964;2023-11-21T07:09:28;4.13;;;2.10;;
54909;SDS011;63189;51.240;9.964;2023-11-21T07:11:54;3.38;;;2.03;;
54909;SDS011;63189;51.240;9.964;2023-11-21T07:14:19;4.47;;;2.60;;
54909;SDS011;63189;51.240;9.964;2023-11-21T07:16:45;4.18;;;2.80;;
54909;SDS011;63189;51.240;9.964;2023-11-21T07:19:14;7.65;;;3.63;;
54909;SDS011;63189;51.240;9.964;2023-11-21T07:21:39;5.20;;;3.00;;
54909;SDS011;63189;51.240;9.964;2023-11-21T07:24:05;5.63;;;3.20;;
54909;SDS011;63189;51.240;9.964;2023-11-21T07:26:32;4.50;;;2.30;;
54909;SDS011;63189;51.240;9.964;2023-11-21T07:28:59;5.10;;;3.20;;
54909;SDS011;63189;51.240;9.964;2023-11-21T07:31:27;5.63;;;3.10;;
54909;SDS011;63189;51.240;9.964;2023-11-21T07:33:54;14.25;;;4.03;;
54909;SDS011;63189;51.240;9.964;2023-11-21T07:36:19;6.25;;;3.53;;
54909;SDS011;63189;51.240;9.964;2023-11-21T07:38:47;8.18;;;3.67;;
54909;SDS011;63189;51.240;9.964;2023-11-21T07:41:13;8.57;;;4.13;;
54909;SDS011;63189;51.240;9.964;2023-11-21T07:43:42;6.97;;;3.45;;
54909;SDS011;63189;51.240;9.964;2023-11-21T07:46:08;9.05;;;4.40;;
54909;SDS011;63189;51.240;9.964;2023-11-21T07:48:34;6.13;;;3.00;;
54909;SDS011;63189;51.240;9.964;2023-11-21T07:51:00;6.68;;;3.60;;
54909;SDS011;63189;51.240;9.964;2023-11-21T07:53:27;5.97;;;4.03;;
54909;SDS011;63189;51.240;9.964;2023-11-21T07:55:55;8.25;;;4.43;;
54909;SDS011;63189;51.240;9.964;2023-11-21T07:58:23;8.82;;;4.40;;
54909;SDS011;63189;51.240;9.964;2023-11-21T08:00:49;9.60;;;4.75;;
54909;SDS011;63189;51.240;9.964;2023-11-21T08:03:15;6.40;;;4.03;;
54909;SDS011;63189;51.240;9.964;2023-11-21T08:05:40;6.40;;;3.72;;
54909;SDS011;63189;51.240;9.964;2023-11-21T08:08:06;6.07;;;4.00;;
54909;SDS011;63189;51.240;9.964;2023-11-21T08:10:31;7.50;;;3.95;;
54909;SDS011;63189;51.240;9.964;2023-11-21T08:12:57;8.85;;;5.28;;
54909;SDS011;63189;51.240;9.964;2023-11-21T08:15:23;11.90;;;7.22;;
54909;SDS011;63189;51.240;9.964;2023-11-21T08:17:48;14.77;;;8.00;;
54909;SDS011;63189;51.240;9.964;2023-11-21T08:20:14;14.73;;;6.72;;
54909;SDS011;63189;51.240;9.964;2023-11-21T08:22:43;10.45;;;6.13;;
54909;SDS011;63189;51.240;9.964;2023-11-21T08:25:09;17.40;;;8.25;;
54909;SDS011;63189;51.240;9.964;2023-11-21T08:27:34;12.30;;;6.72;;
54909;SDS011;63189;51.240;9.964;2023-11-21T08:30:00;12.93;;;7.65;;
54909;SDS011;63189;51.240;9.964;2023-11-21T08:32:26;14.90;;;7.63;;
54909;SDS011;63189;51.240;9.964;2023-11-21T08:34:51;12.38;;;7.70;;
54909;SDS011;63189;51.240;9.964;2023-11-21T08:37:17;13.35;;;7.25;;
54909;SDS011;63189;51.240;9.964;2023-11-21T08:39:45;14.20;;;8.32;;
54909;SDS011;63189;51.240;9.964;2023-11-21T08:42:13;15.93;;;7.75;;
54909;SDS011;63189;51.240;9.964;2023-11-21T08:44:39;9.60;;;6.28;;
54909;SDS011;63189;51.240;9.964;2023-11-21T08:47:05;11.75;;;7.00;;
54909;SDS011;63189;51.240;9.964;2023-11-21T08:49:30;11.38;;;5.75;;
54909;SDS011;63189;51.240;9.964;2023-11-21T08:51:55;21.67;;;12.18;;
54909;SDS011;63189;51.240;9.964;2023-11-21T08:54:22;12.80;;;7.53;;
54909;SDS011;63189;51.240;9.964;2023-11-21T08:56:48;15.85;;;7.45;;
54909;SDS011;63189;51.240;9.964;2023-11-21T08:59:15;16.15;;;7.63;;
54909;SDS011;63189;51.240;9.964;2023-11-21T09:01:40;12.52;;;7.53;;
54909;SDS011;63189;51.240;9.964;2023-11-21T09:04:06;14.23;;;7.15;;
54909;SDS011;63189;51.240;9.964;2023-11-21T09:06:31;15.05;;;7.22;;
54909;SDS011;63189;51.240;9.964;2023-11-21T09:08:57;11.55;;;5.45;;
54909;SDS011;63189;51.240;9.964;2023-11-21T09:11:23;9.55;;;5.95;;
54909;SDS011;63189;51.240;9.964;2023-11-21T09:13:50;9.95;;;5.30;;
54909;SDS011;63189;51.240;9.964;2023-11-21T09:16:16;11.70;;;6.68;;
54909;SDS011;63189;51.240;9.964;2023-11-21T09:18:41;13.65;;;7.82;;
54909;SDS011;63189;51.240;9.964;2023-11-21T09:21:07;11.77;;;7.15;;
54909;SDS011;63189;51.240;9.964;2023-11-21T09:23:33;14.13;;;7.13;;
54909;SDS011;63189;51.240;9.964;2023-11-21T09:25:59;14.65;;;7.18;;
54909;SDS011;63189;51.240;9.964;2023-11-21T09:28:25;12.95;;;7.40;;
54909;SDS011;63189;51.240;9.964;2023-11-21T09:30:52;15.38;;;7.80;;
54909;SDS011;63189;51.240;9.964;2023-11-21T09:33:18;14.27;;;7.65;;
54909;SDS011;63189;51.240;9.964;2023-11-21T09:35:43;19.80;;;7.30;;
54909;SDS011;63189;51.240;9.964;2023-11-21T09:38:09;10.45;;;6.28;;
54909;SDS011;63189;51.240;9.964;2023-11-21T09:40:35;12.48;;;6.22;;
54909;SDS011;63189;51.240;9.964;2023-11-21T09:43:02;11.77;;;6.85;;
54909;SDS011;63189;51.240;9.964;2023-11-21T09:45:34;14.48;;;6.25;;
54909;SDS011;63189;51.240;9.964;2023-11-21T09:48:00;9.65;;;5.38;;
54909;SDS011;63189;51.240;9.964;2023-11-21T09:50:26;11.57;;;5.70;;
54909;SDS011;63189;51.240;9.964;2023-11-21T09:53:05;10.75;;;5.25;;
54909;SDS011;63189;51.240;9.964;2023-11-21T09:55:35;11.20;;;5.88;;
54909;SDS011;63189;51.240;9.964;2023-11-21T09:58:03;9.32;;;5.32;;
54909;SDS011;63189;51.240;9.964;2023-11-21T10:00:32;10.35;;;5.68;;
54909;SDS011;63189;51.240;9.964;2023-11-21T10:03:00;12.82;;;5.65;;
54909;SDS011;63189;51.240;9.964;2023-11-21T10:05:27;8.52;;;5.18;;
54909;SDS011;63189;51.240;9.964;2023-11-21T10:07:53;11.60;;;7.10;;
54909;SDS011;63189;51.240;9.964;2023-11-21T10:10:22;27.45;;;8.77;;
54909;SDS011;63189;51.240;9.964;2023-11-21T10:12:50;17.23;;;7.35;;
54909;SDS011;63189;51.240;9.964;2023-11-21T10:15:23;13.25;;;7.10;;
54909;SDS011;63189;51.240;9.964;2023-11-21T10:17:52;16.00;;;7.45;;
54909;SDS011;63189;51.240;9.964;2023-11-21T10:20:20;13.45;;;7.00;;
54909;SDS011;63189;51.240;9.964;2023-11-21T10:22:45;13.57;;;7.47;;
54909;SDS011;63189;51.240;9.964;2023-11-21T10:25:11;17.08;;;8.20;;
54909;SDS011;63189;51.240;9.964;2023-11-21T10:27:39;13.02;;;7.65;;
54909;SDS011;63189;51.240;9.964;2023-11-21T10:30:07;13.65;;;8.32;;
54909;SDS011;63189;51.240;9.964;2023-11-21T10:32:36;14.93;;;7.25;;
54909;SDS011;63189;51.240;9.964;2023-11-21T10:35:06;15.40;;;8.48;;
54909;SDS011;63189;51.240;9.964;2023-11-21T10:37:40;15.80;;;8.05;;
54909;SDS011;63189;51.240;9.964;2023-11-21T10:40:06;15.52;;;7.82;;
54909;SDS011;63189;51.240;9.964;2023-11-21T10:42:32;17.20;;;9.60;;
54909;SDS011;63189;51.240;9.964;2023-11-21T10:44:58;14.70;;;7.90;;
54909;SDS011;63189;51.240;9.964;2023-11-21T10:47:24;14.35;;;8.50;;
54909;SDS011;63189;51.240;9.964;2023-11-21T10:49:49;12.98;;;8.43;;
54909;SDS011;63189;51.240;9.964;2023-11-21T10:52:15;11.32;;;6.47;;
54909;SDS011;63189;51.240;9.964;2023-11-21T10:54:42;14.95;;;7.70;;
54909;SDS011;63189;51.240;9.964;2023-11-21T10:57:13;15.38;;;6.88;;
54909;SDS011;63189;51.240;9.964;2023-11-21T10:59:42;12.90;;;7.82;;
54909;SDS011;63189;51.240;9.964;2023-11-21T11:02:24;10.18;;;6.60;;
54909;SDS011;63189;51.240;9.964;2023-11-21T11:04:52;11.93;;;6.95;;
54909;SDS011;63189;51.240;9.964;2023-11-21T11:07:21;11.98;;;7.53;;
54909;SDS011;63189;51.240;9.964;2023-11-21T11:09:50;11.48;;;7.30;;
54909;SDS011;63189;51.240;9.964;2023-11-21T11:12:17;12.68;;;7.22;;
54909;SDS011;63189;51.240;9.964;2023-11-21T11:14:44;11.45;;;6.50;;
54909;SDS011;63189;51.240;9.964;2023-11-21T11:17:13;11.63;;;6.13;;
54909;SDS011;63189;51.240;9.964;2023-11-21T11:19:38;9.85;;;6.05;;
54909;SDS011;63189;51.240;9.964;2023-11-21T11:25:38;8.77;;;5.90;;
54909;SDS011;63189;51.240;9.964;2023-11-21T11:28:17;10.10;;;5.90;;
54909;SDS011;63189;51.240;9.964;2023-11-21T11:30:58;9.60;;;6.38;;
54909;SDS011;63189;51.240;9.964;2023-11-21T11:37:05;9.13;;;5.30;;
54909;SDS011;63189;51.240;9.964;2023-11-21T11:39:38;10.48;;;6.32;;
54909;SDS011;63189;51.240;9.964;2023-11-21T11:42:08;8.00;;;4.93;;
54909;SDS011;63189;51.240;9.964;2023-11-21T11:47:17;6.72;;;4.03;;
54909;SDS011;63189;51.240;9.964;2023-11-21T11:54:57;5.97;;;3.10;;
54909;SDS011;63189;51.240;9.964;2023-11-21T11:57:26;6.63;;;3.20;;
54909;SDS011;63189;51.240;9.964;2023-11-21T12:00:11;7.43;;;3.45;;
54909;SDS011;63189;51.240;9.964;2023-11-21T12:02:40;5.75;;;3.42;;
54909;SDS011;63189;51.240;9.964;2023-11-21T12:05:09;6.88;;;3.47;;
54909;SDS011;63189;51.240;9.964;2023-11-21T12:10:23;6.90;;;2.97;;
54909;SDS011;63189;51.240;9.964;2023-11-21T12:12:54;4.00;;;2.25;;
54909;SDS011;63189;51.240;9.964;2023-11-21T12:15:21;4.47;;;2.92;;
54909;SDS011;63189;51.240;9.964;2023-11-21T12:17:48;7.93;;;4.28;;
54909;SDS011;63189;51.240;9.964;2023-11-21T12:20:15;7.22;;;4.25;;
54909;SDS011;63189;51.240;9.964;2023-11-21T12:22:44;9.65;;;5.28;;
54909;SDS011;63189;51.240;9.964;2023-11-21T12:25:35;7.78;;;4.88;;
54909;SDS011;63189;51.240;9.964;2023-11-21T12:28:01;6.93;;;4.57;;
54909;SDS011;63189;51.240;9.964;2023-11-21T12:30:28;7.80;;;3.95;;
54909;SDS011;63189;51.240;9.964;2023-11-21T12:32:56;7.70;;;3.80;;
54909;SDS011;63189;51.240;9.964;2023-11-21T12:35:23;5.50;;;3.10;;
54909;SDS011;63189;51.240;9.964;2023-11-21T12:37:51;5.10;;;3.15;;
54909;SDS011;63189;51.240;9.964;2023-11-21T12:40:17;5.88;;;2.92;;
54909;SDS011;63189;51.240;9.964;2023-11-21T12:42:46;3.95;;;2.90;;
54909;SDS011;63189;51.240;9.964;2023-11-21T12:47:42;5.22;;;3.45;;
54909;SDS011;63189;51.240;9.964;2023-11-21T12:50:09;5.20;;;3.72;;
54909;SDS011;63189;51.240;9.964;2023-11-21T12:52:45;8.32;;;4.15;;
54909;SDS011;63189;51.240;9.964;2023-11-21T12:55:17;7.85;;;4.30;;
54909;SDS011;63189;51.240;9.964;2023-11-21T12:57:47;7.68;;;5.10;;
54909;SDS011;63189;51.240;9.964;2023-11-21T13:00:16;6.82;;;4.32;;
54909;SDS011;63189;51.240;9.964;2023-11-21T13:02:55;10.00;;;6.38;;
54909;SDS011;63189;51.240;9.964;2023-11-21T13:05:44;7.70;;;5.13;;
54909;SDS011;63189;51.240;9.964;2023-11-21T13:08:15;9.43;;;6.32;;
54909;SDS011;63189;51.240;9.964;2023-11-21T13:10:44;11.00;;;6.88;;
54909;SDS011;63189;51.240;9.964;2023-11-21T13:13:12;8.23;;;5.85;;
54909;SDS011;63189;51.240;9.964;2023-11-21T13:15:47;11.07;;;6.70;;
54909;SDS011;63189;51.240;9.964;2023-11-21T13:18:13;12.05;;;7.63;;
54909;SDS011;63189;51.240;9.964;2023-11-21T13:20:39;12.30;;;7.88;;
54909;SDS011;63189;51.240;9.964;2023-11-21T13:23:09;14.75;;;7.55;;
54909;SDS011;63189;51.240;9.964;2023-11-21T13:25:43;13.65;;;8.15;;
54909;SDS011;63189;51.240;9.964;2023-11-21T13:28:13;20.42;;;8.90;;
54909;SDS011;63189;51.240;9.964;2023-11-21T13:30:40;19.15;;;8.55;;
54909;SDS011;63189;51.240;9.964;2023-11-21T13:33:06;26.33;;;8.80;;
54909;SDS011;63189;51.240;9.964;2023-11-21T13:35:37;17.00;;;8.57;;
54909;SDS011;63189;51.240;9.964;2023-11-21T13:38:10;20.48;;;7.47;;
54909;SDS011;63189;51.240;9.964;2023-11-21T13:40:40;19.42;;;5.97;;
54909;SDS011;63189;51.240;9.964;2023-11-21T13:43:14;12.70;;;6.47;;
54909;SDS011;63189;51.240;9.964;2023-11-21T13:45:41;10.82;;;6.53;;
54909;SDS011;63189;51.240;9.964;2023-11-21T13:48:08;8.05;;;5.70;;
54909;SDS011;63189;51.240;9.964;2023-11-21T13:50:38;8.57;;;5.85;;
54909;SDS011;63189;51.240;9.964;2023-11-21T13:53:04;10.68;;;6.72;;
54909;SDS011;63189;51.240;9.964;2023-11-21T13:55:45;9.27;;;6.50;;
54909;SDS011;63189;51.240;9.964;2023-11-21T13:58:10;10.07;;;6.45;;
54909;SDS011;63189;51.240;9.964;2023-11-21T14:00:42;10.27;;;7.18;;
54909;SDS011;63189;51.240;9.964;2023-11-21T14:03:14;10.23;;;6.80;;
54909;SDS011;63189;51.240;9.964;2023-11-21T14:05:46;11.88;;;7.47;;
54909;SDS011;63189;51.240;9.964;2023-11-21T14:08:16;10.20;;;7.00;;
54909;SDS011;63189;51.240;9.964;2023-11-21T14:10:46;11.23;;;8.02;;
54909;SDS011;63189;51.240;9.964;2023-11-21T14:13:19;11.45;;;7.70;;
54909;SDS011;63189;51.240;9.964;2023-11-21T14:15:48;11.30;;;7.72;;
54909;SDS011;63189;51.240;9.964;2023-11-21T14:18:16;11.20;;;7.50;;
54909;SDS011;63189;51.240;9.964;2023-11-21T14:20:42;10.93;;;7.43;;
54909;SDS011;63189;51.240;9.964;2023-11-21T14:23:09;11.57;;;7.53;;
54909;SDS011;63189;51.240;9.964;2023-11-21T14:25:36;11.45;;;7.63;;
54909;SDS011;63189;51.240;9.964;2023-11-21T14:28:02;11.55;;;7.45;;
54909;SDS011;63189;51.240;9.964;2023-11-21T14:30:30;13.50;;;8.40;;
54909;SDS011;63189;51.240;9.964;2023-11-21T14:32:58;12.65;;;8.30;;
54909;SDS011;63189;51.240;9.964;2023-11-21T14:35:24;12.30;;;7.97;;
54909;SDS011;63189;51.240;9.964;2023-11-21T14:37:50;14.57;;;7.88;;
54909;SDS011;63189;51.240;9.964;2023-11-21T14:40:15;24.05;;;14.13;;
54909;SDS011;63189;51.240;9.964;2023-11-21T14:42:41;12.70;;;8.63;;
54909;SDS011;63189;51.240;9.964;2023-11-21T14:45:08;12.38;;;7.60;;
54909;SDS011;63189;51.240;9.964;2023-11-21T14:47:37;10.43;;;7.15;;
54909;SDS011;63189;51.240;9.964;2023-11-21T14:50:07;10.15;;;6.97;;
54909;SDS011;63189;51.240;9.964;2023-11-21T14:52:53;10.00;;;7.07;;
54909;SDS011;63189;51.240;9.964;2023-11-21T14:55:24;10.85;;;6.97;;
54909;SDS011;63189;51.240;9.964;2023-11-21T14:57:57;10.55;;;6.15;;
54909;SDS011;63189;51.240;9.964;2023-11-21T15:00:27;9.65;;;6.32;;
54909;SDS011;63189;51.240;9.964;2023-11-21T15:03:04;8.93;;;6.35;;